Cheney, KS

5:41 PM CST on February 10, 2016 (GMT -0600)
North Marshall Street | | Change Station
CLOSE
Current Station
Personal Weather Station
Location: Cheney, KS
Elevation: 1407 ft
Nearby Weather Stations

Elev 1407 ft 37.63 °N, 97.78 °W | Updated 6 seconds ago

Clear
Clear
69.8 °F
Feels Like 69.8 °F
N
4.2
Wind Variable Wind from West
Gusts 7.4 mph

Today
High -- | Low -- °F
--% Chance of Precip.
Yesterday
High -- | Low -- °F
Precip. -- in
Pressure 29.89 in
Visibility 10.0 miles
Clouds Clear
Dew Point 29 °F
Humidity 22%
Rainfall 0.00 in
Snow Depth Not available.
7:26 AM 6:04 PM
Waxing Crescent, 8% visible
METAR KICT 102253Z 24006KT 10SM CLR 22/00 A2988 RMK AO2 SLP120 T02170000
Pressure 29.89 in
Visibility 10.0 miles
Clouds Clear
Dew Point 29 °F
Humidity 22%
Rainfall 0.00 in
Snow Depth Not available.
7:26 AM 6:04 PM
Waxing Crescent, 8% visible
METAR KICT 102253Z 24006KT 10SM CLR 22/00 A2988 RMK AO2 SLP120 T02170000

10-Day Weather Forecast

Almanac

Astronomy

Feb. 10, 2016 Rise Set
Actual Time
Civil Twilight
Nautical Twilight
Astronomical Twilight
Moon
Length of Visible Light
Length of Day
Tomorrow will be .
, % of the Moon is Illuminated

Today's Extremes

State Highs State Lows

Community

WunderPhotos

Upload Photos

1,891,935 photos uploaded!

WunderBlog® & News

Nearby

Air Quality

  Air Quality AQ Index Pollutant
Not available.

Snow Depth

Station Depth Elevation

Earthquake Activity

City Distance Mag. Time & Date
Minimum magnitude displayed is 2.5.

Coastal Water Temperatures

Place Temperature

Stations

Nearby Weather Stations

Station Location Temp. Windchill Dew Point Humidity Wind Precip. Elev Updated Type
                   

Watches & Warnings

There are currently no watches in effect.